Time;durP1;ratioP1;P1;durP2;ratioP2;P2;SDS_P1;SDS_P2;PMS_P1;PMS_P2;Temp;Humidity;BMP_temperature;BMP_pressure;BME280_temperature;BME280_humidity;BME280_pressure;Samples;Min_cycle;Max_cycle;Signal;HPM_P1;HPM_P2
2022/05/10 00:01:54;;;;;;;13.82;6.03;;;17.70;99.90;;;;;;5100321;28;20226;-80
2022/05/10 00:04:20;;;;;;;9.18;5.95;;;17.60;99.90;;;;;;5100776;28;20240;-80
2022/05/10 00:06:48;;;;;;;8.27;5.85;;;17.50;99.90;;;;;;5099671;28;20657;-81
2022/05/10 00:09:16;;;;;;;8.77;5.65;;;17.30;99.90;;;;;;5099853;28;20537;-80
2022/05/10 00:11:42;;;;;;;11.82;5.35;;;17.20;99.90;;;;;;5098867;28;20162;-80
2022/05/10 00:14:09;;;;;;;7.45;5.72;;;17.10;99.90;;;;;;5096422;28;20626;-81
2022/05/10 00:16:40;;;;;;;12.95;6.43;;;17.30;99.90;;;;;;5100865;28;20261;-80
2022/05/10 00:19:06;;;;;;;14.48;5.97;;;17.20;99.90;;;;;;5099066;28;20177;-80
2022/05/10 00:21:34;;;;;;;10.25;5.97;;;17.10;99.90;;;;;;5098920;28;20166;-81
2022/05/10 00:24:00;;;;;;;16.08;5.85;;;17.10;99.90;;;;;;5101507;28;20169;-80
2022/05/10 00:26:30;;;;;;;14.20;5.75;;;17.20;99.90;;;;;;5082919;28;20193;-80
2022/05/10 00:28:57;;;;;;;8.15;5.90;;;17.30;99.90;;;;;;5100424;28;20176;-79
2022/05/10 00:31:23;;;;;;;10.38;6.85;;;17.20;99.90;;;;;;5099296;28;20205;-80
2022/05/10 00:33:49;;;;;;;11.43;6.00;;;17.20;99.90;;;;;;5099334;28;20690;-80
2022/05/10 00:36:16;;;;;;;8.90;5.47;;;17.20;99.90;;;;;;5102572;28;20216;-80
2022/05/10 00:38:43;;;;;;;9.30;7.22;;;17.20;99.90;;;;;;5102102;28;20161;-80
2022/05/10 00:41:25;;;;;;;21.02;8.10;;;17.20;99.90;;;;;;5100359;28;20187;-80
2022/05/10 00:43:57;;;;;;;22.30;7.07;;;17.20;99.90;;;;;;5100782;28;20250;-80
2022/05/10 00:46:32;;;;;;;21.88;7.45;;;17.10;99.90;;;;;;5099905;28;20220;-80
2022/05/10 00:49:10;;;;;;;12.65;6.22;;;17.10;99.90;;;;;;5099545;28;20176;-80
2022/05/10 00:51:57;;;;;;;15.23;7.32;;;17.20;99.90;;;;;;5100631;28;20169;-80
2022/05/10 00:54:31;;;;;;;15.57;6.50;;;17.10;99.90;;;;;;5099712;28;20180;-80
2022/05/10 00:57:08;;;;;;;8.82;7.00;;;17.00;99.90;;;;;;5100899;28;20182;-80
2022/05/10 01:00:04;;;;;;;19.25;6.75;;;16.90;99.90;;;;;;5098776;28;20177;-80
2022/05/10 01:02:57;;;;;;;18.75;7.60;;;16.90;99.90;;;;;;5100103;28;20185;-81
2022/05/10 01:05:27;;;;;;;14.27;6.47;;;16.90;99.90;;;;;;5096174;28;20170;-80
2022/05/10 01:08:10;;;;;;;9.45;7.07;;;16.90;99.90;;;;;;5093781;28;20252;-80
2022/05/10 01:10:51;;;;;;;16.75;6.68;;;17.00;99.90;;;;;;5093365;28;20222;-80
2022/05/10 01:13:54;;;;;;;18.10;6.07;;;17.10;99.90;;;;;;5093071;28;20177;-80
2022/05/10 01:16:22;;;;;;;8.88;6.95;;;17.00;99.90;;;;;;5092906;28;20220;-80
2022/05/10 01:18:50;;;;;;;10.43;6.60;;;16.90;99.90;;;;;;5093326;28;20201;-83
2022/05/10 01:21:39;;;;;;;12.02;6.65;;;17.00;99.90;;;;;;5091883;28;20198;-80
2022/05/10 01:24:21;;;;;;;12.48;7.18;;;16.80;99.90;;;;;;5092816;28;20744;-80
2022/05/10 01:26:47;;;;;;;17.70;7.10;;;16.70;99.90;;;;;;5091707;28;20193;-79
2022/05/10 01:29:20;;;;;;;12.32;6.78;;;16.70;99.90;;;;;;5092941;28;20218;-80
2022/05/10 01:33:29;;;;;;;11.73;6.80;;;16.70;99.90;;;;;;5092973;28;20166;-80
2022/05/10 01:34:38;;;;;;;9.98;6.82;;;16.50;99.90;;;;;;5093011;28;20252;-80
2022/05/10 01:37:11;;;;;;;11.50;6.32;;;16.70;99.90;;;;;;5093207;28;20200;-81
2022/05/10 01:39:54;;;;;;;7.93;6.55;;;16.80;99.90;;;;;;5092781;28;20168;-80
2022/05/10 01:42:30;;;;;;;8.60;6.40;;;16.80;99.90;;;;;;5102462;28;20250;-80
2022/05/10 01:45:15;;;;;;;14.68;6.68;;;16.80;99.90;;;;;;5103987;28;20166;-79
2022/05/10 01:47:45;;;;;;;12.02;6.93;;;16.80;99.90;;;;;;5101105;28;20181;-80
2022/05/10 01:50:22;;;;;;;14.98;6.43;;;16.70;99.90;;;;;;5101673;28;20221;-80
2022/05/10 01:53:12;;;;;;;13.68;7.10;;;16.60;99.90;;;;;;5104491;28;20161;-80
2022/05/10 01:55:50;;;;;;;16.17;8.43;;;16.60;99.90;;;;;;5122129;28;20206;-80
2022/05/10 01:58:29;;;;;;;18.55;7.78;;;16.60;99.90;;;;;;5118726;28;20166;-80
2022/05/10 02:01:03;;;;;;;14.75;6.70;;;16.80;99.90;;;;;;5102515;28;20161;-80
2022/05/10 02:03:39;;;;;;;15.77;7.57;;;16.70;99.90;;;;;;5105527;28;20219;-80
2022/05/10 02:06:30;;;;;;;7.55;6.57;;;16.60;99.90;;;;;;5106507;28;20181;-80
2022/05/10 02:09:06;;;;;;;11.82;6.40;;;16.60;99.90;;;;;;5104138;28;20201;-80
2022/05/10 02:12:00;;;;;;;12.15;6.75;;;16.70;99.90;;;;;;5107147;28;20170;-79
2022/05/10 02:14:44;;;;;;;11.20;6.40;;;16.40;99.90;;;;;;5092827;28;20205;-79
2022/05/10 02:17:39;;;;;;;13.40;6.65;;;16.50;99.90;;;;;;5110298;28;20201;-80
2022/05/10 02:20:28;;;;;;;14.13;6.63;;;16.40;99.90;;;;;;5109110;28;20174;-80
2022/05/10 02:23:07;;;;;;;12.50;7.75;;;16.50;99.90;;;;;;5109175;28;20162;-80
2022/05/10 02:25:40;;;;;;;7.80;6.93;;;16.60;99.90;;;;;;5105578;28;20196;-81
2022/05/10 02:28:26;;;;;;;23.45;7.43;;;16.80;99.90;;;;;;5106902;28;20748;-80
2022/05/10 02:30:57;;;;;;;17.70;8.57;;;16.80;99.90;;;;;;5109185;28;20162;-82
2022/05/10 02:33:24;;;;;;;17.00;8.02;;;16.90;99.90;;;;;;5108500;28;20168;-80
2022/05/10 02:35:58;;;;;;;16.27;8.18;;;16.90;99.90;;;;;;5108975;28;20213;-82
2022/05/10 02:38:45;;;;;;;22.23;8.23;;;16.70;99.90;;;;;;5111172;28;20177;-80
2022/05/10 02:41:22;;;;;;;21.67;8.02;;;16.70;99.90;;;;;;5129349;28;20172;-82
2022/05/10 02:43:53;;;;;;;10.23;7.78;;;16.70;99.90;;;;;;5112153;28;20170;-80
2022/05/10 02:46:21;;;;;;;10.60;6.95;;;16.80;99.90;;;;;;5114362;28;20251;-78
2022/05/10 02:48:52;;;;;;;12.82;7.78;;;16.70;99.90;;;;;;5097297;28;20162;-79
2022/05/10 02:51:21;;;;;;;14.52;7.85;;;16.60;99.90;;;;;;5115113;28;20247;-79
2022/05/10 02:53:48;;;;;;;19.77;8.30;;;16.70;99.90;;;;;;5116339;28;20150;-79
2022/05/10 02:56:24;;;;;;;13.38;7.65;;;16.80;99.90;;;;;;5114027;28;20216;-79
2022/05/10 02:59:05;;;;;;;11.10;7.95;;;16.90;99.90;;;;;;5111394;28;20169;-79
2022/05/10 03:01:57;;;;;;;12.85;7.65;;;16.80;99.90;;;;;;5096881;28;20177;-84
2022/05/10 03:04:24;;;;;;;14.20;7.72;;;16.80;99.90;;;;;;5106221;28;20162;-80
2022/05/10 03:06:50;;;;;;;7.88;7.13;;;16.70;99.90;;;;;;5107358;28;20664;-85
2022/05/10 03:09:16;;;;;;;12.57;7.93;;;16.60;99.90;;;;;;5104052;28;20170;-84
2022/05/10 03:11:44;;;;;;;14.18;7.47;;;16.60;99.90;;;;;;5102692;28;20634;-82
2022/05/10 03:14:11;;;;;;;14.38;7.75;;;16.50;99.90;;;;;;5117290;28;20217;-80
2022/05/10 03:16:36;;;;;;;19.33;8.18;;;16.60;99.90;;;;;;5106486;28;20589;-80
2022/05/10 03:19:04;;;;;;;12.52;7.38;;;16.70;99.90;;;;;;5106870;28;20158;-82
2022/05/10 03:21:29;;;;;;;8.68;7.75;;;16.70;99.90;;;;;;5109105;28;20165;-80
2022/05/10 03:23:56;;;;;;;16.58;9.15;;;16.80;99.90;;;;;;5106114;28;20197;-81
2022/05/10 03:26:26;;;;;;;12.10;8.02;;;16.70;99.90;;;;;;5103833;28;20190;-80
2022/05/10 03:28:52;;;;;;;16.40;8.68;;;16.70;99.90;;;;;;5100719;28;20162;-82
2022/05/10 03:31:22;;;;;;;15.48;7.50;;;16.80;99.90;;;;;;5101193;28;20295;-80
2022/05/10 03:34:54;;;;;;;13.70;8.23;;;16.80;99.90;;;;;;5101690;28;20154;-81
2022/05/10 03:36:34;;;;;;;13.38;7.80;;;16.90;99.90;;;;;;5102063;28;20241;-79
2022/05/10 03:39:01;;;;;;;17.48;8.48;;;17.00;99.90;;;;;;5101309;28;20178;-81
2022/05/10 03:41:27;;;;;;;13.15;6.63;;;17.00;99.90;;;;;;5095129;28;20178;-80
2022/05/10 03:43:52;;;;;;;15.85;6.90;;;17.00;99.90;;;;;;5095624;28;20216;-82
2022/05/10 03:46:18;;;;;;;18.00;7.28;;;17.00;99.90;;;;;;5095493;28;20185;-81
2022/05/10 03:48:44;;;;;;;11.43;7.53;;;17.00;99.90;;;;;;5095787;28;20244;-83
2022/05/10 03:51:11;;;;;;;8.20;6.97;;;17.00;99.90;;;;;;5100844;28;20172;-80
2022/05/10 03:53:37;;;;;;;11.38;7.47;;;17.10;99.90;;;;;;5108714;28;20176;-81
2022/05/10 03:56:04;;;;;;;13.07;6.60;;;17.00;99.90;;;;;;5105546;28;20206;-80
2022/05/10 03:58:30;;;;;;;9.73;7.10;;;17.20;99.90;;;;;;5105975;28;20181;-79
2022/05/10 04:00:55;;;;;;;13.23;7.45;;;17.10;99.90;;;;;;5107597;28;20638;-80
2022/05/10 04:03:24;;;;;;;14.88;6.95;;;17.20;99.90;;;;;;5106430;28;20165;-79
2022/05/10 04:05:51;;;;;;;11.93;6.80;;;17.20;99.90;;;;;;5106118;28;20197;-80
2022/05/10 04:08:17;;;;;;;11.82;7.82;;;17.30;99.90;;;;;;5106354;28;20174;-80
2022/05/10 04:10:42;;;;;;;19.98;6.82;;;17.30;99.90;;;;;;5106955;28;20247;-82
2022/05/10 04:13:10;;;;;;;7.90;6.60;;;17.30;99.90;;;;;;5107548;28;20221;-80
2022/05/10 04:15:37;;;;;;;22.52;6.75;;;17.40;99.90;;;;;;5107266;28;20205;-81
2022/05/10 04:18:07;;;;;;;19.52;6.90;;;17.30;99.90;;;;;;5105616;28;20186;-79
2022/05/10 04:20:32;;;;;;;12.90;7.20;;;17.50;99.90;;;;;;5101012;28;20201;-84
2022/05/10 04:22:59;;;;;;;26.63;7.85;;;17.50;99.90;;;;;;5093667;28;20198;-82
2022/05/10 04:25:25;;;;;;;9.50;7.20;;;17.60;99.90;;;;;;5094714;28;20172;-80
2022/05/10 04:27:55;;;;;;;10.85;5.65;;;17.60;99.90;;;;;;5094227;28;20252;-82
2022/05/10 04:30:21;;;;;;;22.98;7.18;;;17.60;99.90;;;;;;5094023;28;20193;-79
2022/05/10 04:32:49;;;;;;;21.05;7.40;;;17.80;99.90;;;;;;5093054;28;20166;-80
2022/05/10 04:35:15;;;;;;;15.27;6.97;;;17.90;99.90;;;;;;5093919;28;20308;-84
2022/05/10 04:37:40;;;;;;;9.98;7.25;;;17.80;99.90;;;;;;5093669;28;20201;-80
2022/05/10 04:42:52;;;;;;;13.98;6.57;;;18.00;99.90;;;;;;5093811;28;20181;-79
2022/05/10 04:45:18;;;;;;;17.17;7.70;;;18.10;99.90;;;;;;5109335;28;20165;-79
2022/05/10 04:47:44;;;;;;;16.73;6.85;;;18.20;99.90;;;;;;5093414;28;20166;-81
2022/05/10 04:50:11;;;;;;;9.73;6.60;;;18.40;99.90;;;;;;5094152;28;20162;-85
2022/05/10 04:52:38;;;;;;;14.70;7.18;;;18.50;99.90;;;;;;5105004;28;20522;-80
2022/05/10 04:55:05;;;;;;;13.55;7.32;;;18.50;99.90;;;;;;5093893;28;20193;-80
2022/05/10 04:57:31;;;;;;;19.52;7.68;;;18.50;99.90;;;;;;5093259;28;20170;-79
2022/05/10 04:59:57;;;;;;;12.57;7.10;;;18.70;99.90;;;;;;5093219;28;20158;-79
2022/05/10 05:02:22;;;;;;;19.77;7.68;;;18.80;99.90;;;;;;5092036;28;20189;-79
2022/05/10 05:04:48;;;;;;;18.08;8.00;;;18.80;99.90;;;;;;5093514;28;20253;-82
2022/05/10 05:07:14;;;;;;;12.98;7.78;;;18.80;99.90;;;;;;5093227;28;20197;-80
2022/05/10 05:09:39;;;;;;;17.35;7.60;;;18.60;99.90;;;;;;5093717;28;20165;-79
2022/05/10 05:12:05;;;;;;;22.02;9.20;;;18.80;99.90;;;;;;5103302;28;20226;-80
2022/05/10 05:14:31;;;;;;;28.65;8.63;;;18.80;99.90;;;;;;5097730;28;20239;-79
2022/05/10 05:16:59;;;;;;;23.73;9.73;;;19.00;99.90;;;;;;5096729;28;20197;-79
2022/05/10 05:19:25;;;;;;;20.23;8.43;;;19.10;99.90;;;;;;5097217;28;20189;-79
2022/05/10 05:21:50;;;;;;;15.70;8.40;;;19.20;99.90;;;;;;5097251;28;20173;-80
2022/05/10 05:24:16;;;;;;;21.55;8.20;;;19.40;99.90;;;;;;5096091;28;20591;-79
2022/05/10 05:26:46;;;;;;;24.70;7.63;;;19.60;99.90;;;;;;5095452;28;20188;-79
2022/05/10 05:29:12;;;;;;;20.58;8.77;;;19.50;99.90;;;;;;5094642;28;20154;-80
2022/05/10 05:31:39;;;;;;;29.55;8.02;;;19.50;99.90;;;;;;5092782;28;20203;-79
2022/05/10 05:34:05;;;;;;;33.55;8.35;;;19.40;99.90;;;;;;5098872;28;20174;-80
2022/05/10 05:36:33;;;;;;;17.60;7.80;;;19.50;99.90;;;;;;5100981;28;20227;-80
2022/05/10 05:38:59;;;;;;;17.00;7.60;;;19.70;99.90;;;;;;5103156;28;20265;-80
2022/05/10 05:41:25;;;;;;;18.10;8.73;;;19.90;99.90;;;;;;5100245;28;20253;-80
2022/05/10 05:43:56;;;;;;;22.23;7.20;;;20.10;99.90;;;;;;5103027;28;20166;-80
2022/05/10 05:46:23;;;;;;;14.45;7.40;;;20.20;99.90;;;;;;5100427;28;20284;-79
2022/05/10 05:48:48;;;;;;;26.48;7.65;;;20.30;99.90;;;;;;5084632;28;21461;-77
2022/05/10 05:51:14;;;;;;;17.65;6.75;;;20.20;99.90;;;;;;5094943;28;20242;-77
2022/05/10 05:53:40;;;;;;;16.65;6.75;;;20.10;99.90;;;;;;5095125;28;20242;-78
2022/05/10 05:56:10;;;;;;;12.52;7.70;;;20.30;99.90;;;;;;5095443;28;20288;-77
2022/05/10 05:58:38;;;;;;;19.20;7.05;;;20.40;99.90;;;;;;5096827;28;20177;-79
2022/05/10 06:01:20;;;;;;;15.02;6.50;;;20.40;99.90;;;;;;5081369;28;20262;-78
2022/05/10 06:03:46;;;;;;;23.50;7.10;;;20.30;99.90;;;;;;5104216;28;20244;-78
2022/05/10 06:06:14;;;;;;;13.68;6.75;;;20.30;99.90;;;;;;5100628;28;20217;-78
2022/05/10 06:08:40;;;;;;;11.27;7.18;;;20.40;99.90;;;;;;5096475;28;20162;-78
2022/05/10 06:11:05;;;;;;;34.33;7.97;;;20.20;99.90;;;;;;5096159;28;20190;-78
2022/05/10 06:13:34;;;;;;;9.73;7.18;;;20.40;99.90;;;;;;5094685;28;20165;-77
2022/05/10 06:16:05;;;;;;;16.13;6.72;;;20.50;99.90;;;;;;5095567;28;20228;-79
2022/05/10 06:18:30;;;;;;;14.85;6.80;;;20.50;99.90;;;;;;5094762;28;20173;-78
2022/05/10 06:20:56;;;;;;;35.65;6.28;;;20.60;99.90;;;;;;5095791;28;20685;-78
2022/05/10 06:23:23;;;;;;;15.70;5.85;;;20.70;99.90;;;;;;5096452;28;20180;-78
2022/05/10 06:25:49;;;;;;;16.98;5.95;;;20.90;99.90;;;;;;5093733;28;20221;-79
2022/05/10 06:28:15;;;;;;;52.55;7.32;;;20.90;99.90;;;;;;5095008;28;20278;-79
2022/05/10 06:30:42;;;;;;;30.88;5.50;;;20.80;99.90;;;;;;5095216;28;20679;-78
2022/05/10 06:33:08;;;;;;;46.20;7.78;;;20.90;99.90;;;;;;5093555;28;20244;-78
2022/05/10 06:35:33;;;;;;;30.23;6.40;;;21.00;99.90;;;;;;5092805;28;20324;-81
2022/05/10 06:38:19;;;;;;;14.40;6.25;;;21.30;99.90;;;;;;5092993;28;20166;-78
2022/05/10 06:40:46;;;;;;;10.38;5.75;;;21.40;99.90;;;;;;5092511;28;20172;-82
2022/05/10 06:43:12;;;;;;;28.95;5.72;;;21.60;99.90;;;;;;5092749;28;20510;-79
2022/05/10 06:45:40;;;;;;;14.55;6.00;;;21.70;99.90;;;;;;5092142;28;20186;-79
2022/05/10 06:48:06;;;;;;;24.77;5.43;;;21.70;99.90;;;;;;5092601;28;20166;-78
2022/05/10 06:50:32;;;;;;;11.35;5.25;;;21.80;99.90;;;;;;5091328;28;20176;-79
2022/05/10 06:52:59;;;;;;;11.02;5.28;;;21.80;99.90;;;;;;5092911;28;20193;-79
2022/05/10 06:55:26;;;;;;;10.50;4.97;;;22.00;99.90;;;;;;5092176;28;20249;-79
2022/05/10 06:57:52;;;;;;;18.60;5.45;;;21.60;99.90;;;;;;5091984;28;20198;-81
2022/05/10 07:00:18;;;;;;;8.23;5.22;;;21.80;99.90;;;;;;5092126;28;20197;-78
2022/05/10 07:02:45;;;;;;;10.52;4.82;;;21.90;99.90;;;;;;5086085;28;20174;-78
2022/05/10 07:05:14;;;;;;;6.30;5.57;;;21.40;99.90;;;;;;5087692;28;20219;-78
2022/05/10 07:07:40;;;;;;;8.75;5.80;;;21.50;99.90;;;;;;5060404;28;20427;-80
2022/05/10 07:10:10;;;;;;;13.27;5.32;;;21.70;99.90;;;;;;5071460;28;20159;-78
2022/05/10 07:12:38;;;;;;;8.20;5.47;;;21.80;99.90;;;;;;5080586;28;20175;-78
2022/05/10 07:15:05;;;;;;;21.63;5.78;;;21.90;99.90;;;;;;5070297;28;20212;-79
2022/05/10 07:17:31;;;;;;;24.65;6.47;;;22.10;99.90;;;;;;5070795;28;20214;-79
2022/05/10 07:19:57;;;;;;;16.45;5.60;;;22.20;99.90;;;;;;5070967;28;20171;-84
2022/05/10 07:22:23;;;;;;;9.07;5.40;;;22.20;99.90;;;;;;5071654;28;20657;-79
2022/05/10 07:24:48;;;;;;;17.08;5.78;;;22.20;99.90;;;;;;5074873;28;20167;-79
2022/05/10 07:27:14;;;;;;;11.73;5.68;;;22.30;99.90;;;;;;5083476;28;20243;-78
2022/05/10 07:29:40;;;;;;;26.10;6.57;;;22.30;99.90;;;;;;5102446;28;20173;-78
2022/05/10 07:32:08;;;;;;;12.68;6.43;;;22.20;99.90;;;;;;5109577;28;20330;-77
2022/05/10 07:34:48;;;;;;;14.10;6.03;;;22.20;99.90;;;;;;5090386;28;20174;-78
2022/05/10 07:37:17;;;;;;;8.82;5.63;;;22.30;99.90;;;;;;5071768;28;20206;-82
2022/05/10 07:39:47;;;;;;;31.38;5.97;;;22.40;99.90;;;;;;5077035;28;20635;-79
2022/05/10 07:42:12;;;;;;;13.30;5.25;;;22.60;99.90;;;;;;5074454;28;20296;-78
2022/05/10 07:44:38;;;;;;;7.57;5.75;;;22.80;99.90;;;;;;5073119;28;20261;-84
2022/05/10 07:47:04;;;;;;;14.70;5.10;;;23.00;99.90;;;;;;5074648;28;20265;-81
2022/05/10 07:49:30;;;;;;;22.02;5.28;;;23.00;99.90;;;;;;5089911;28;20208;-82
2022/05/10 07:51:56;;;;;;;28.95;5.57;;;22.90;99.90;;;;;;5094698;28;20197;-81
2022/05/10 07:54:21;;;;;;;9.60;5.03;;;23.00;99.90;;;;;;5094741;28;20173;-81
2022/05/10 07:56:47;;;;;;;8.77;5.03;;;23.10;99.90;;;;;;5094418;28;20209;-78
2022/05/10 07:59:13;;;;;;;17.25;5.00;;;23.40;99.90;;;;;;5094107;28;20264;-85
2022/05/10 08:01:38;;;;;;;13.52;5.00;;;23.70;99.90;;;;;;5093456;28;20638;-80
2022/05/10 08:04:04;;;;;;;22.13;5.80;;;23.70;99.90;;;;;;5074749;28;20196;-87
2022/05/10 08:06:31;;;;;;;14.63;4.78;;;24.00;99.90;;;;;;5075534;28;20252;-79
2022/05/10 08:08:56;;;;;;;12.88;4.57;;;24.10;99.90;;;;;;5072008;28;20201;-82
2022/05/10 08:11:22;;;;;;;5.90;5.25;;;24.10;99.90;;;;;;5082880;28;20979;-81
2022/05/10 08:13:48;;;;;;;14.32;4.65;;;24.00;99.90;;;;;;5075153;28;20530;-80
2022/05/10 08:16:14;;;;;;;10.57;4.93;;;23.90;99.90;;;;;;5074062;28;20724;-88
2022/05/10 08:18:41;;;;;;;14.55;4.53;;;23.60;99.90;;;;;;5082717;28;20205;-79
2022/05/10 08:21:08;;;;;;;17.48;5.55;;;23.70;99.90;;;;;;5095834;28;20174;-88
2022/05/10 08:23:38;;;;;;;13.98;4.70;;;23.90;99.90;;;;;;5083168;28;20220;-79
2022/05/10 08:26:05;;;;;;;10.27;4.60;;;23.90;99.90;;;;;;5073195;28;20190;-79
2022/05/10 08:28:33;;;;;;;17.23;5.03;;;24.00;99.90;;;;;;5087855;28;20174;-83
2022/05/10 08:30:59;;;;;;;6.38;4.28;;;24.00;99.90;;;;;;5077347;28;20181;-82
2022/05/10 08:33:29;;;;;;;6.43;4.22;;;24.20;99.90;;;;;;5070540;28;20171;-86
2022/05/10 08:35:57;;;;;;;13.98;4.18;;;24.50;99.90;;;;;;5071801;28;20221;-85
2022/05/10 08:38:24;;;;;;;11.57;4.22;;;24.50;99.90;;;;;;5087751;28;20169;-86
2022/05/10 08:40:56;;;;;;;11.65;4.25;;;24.40;99.90;;;;;;5086917;28;20178;-87
2022/05/10 08:43:27;;;;;;;6.15;5.43;;;24.50;99.90;;;;;;5073549;28;20167;-83
2022/05/10 08:45:53;;;;;;;7.25;4.90;;;24.60;99.90;;;;;;5073800;28;20242;-84
2022/05/10 08:48:19;;;;;;;5.97;5.38;;;24.70;99.90;;;;;;5080159;28;20236;-84
2022/05/10 08:50:48;;;;;;;12.77;5.07;;;24.70;99.90;;;;;;5073181;28;20207;-84
2022/05/10 08:53:16;;;;;;;8.20;5.35;;;24.70;99.90;;;;;;5075061;28;20199;-87
2022/05/10 08:56:00;;;;;;;4.65;4.25;;;24.60;99.90;;;;;;5074188;28;20214;-84
2022/05/10 08:58:47;;;;;;;12.80;4.97;;;24.80;99.90;;;;;;5074915;28;20670;-84
2022/05/10 09:01:20;;;;;;;14.23;5.40;;;24.90;99.90;;;;;;5081970;28;20185;-88
2022/05/10 09:04:01;;;;;;;20.63;5.88;;;24.90;99.90;;;;;;5081755;28;20173;-88
2022/05/10 09:06:37;;;;;;;8.93;4.95;;;24.90;99.90;;;;;;5075690;28;20206;-88
2022/05/10 09:09:25;;;;;;;18.77;5.65;;;24.90;99.90;;;;;;5082321;28;20166;-88
2022/05/10 09:12:01;;;;;;;10.23;5.53;;;25.00;99.90;;;;;;5082633;28;20186;-88
2022/05/10 09:14:34;;;;;;;9.07;5.15;;;25.20;99.90;;;;;;5080209;28;20185;-86
2022/05/10 09:17:03;;;;;;;12.00;5.03;;;25.10;99.90;;;;;;5096022;28;20217;-84
2022/05/10 09:19:38;;;;;;;17.58;5.40;;;25.20;99.90;;;;;;5074630;28;20166;-85
2022/05/10 09:22:16;;;;;;;9.02;4.35;;;24.90;99.90;;;;;;5082707;28;20196;-86
2022/05/10 09:24:58;;;;;;;11.60;4.75;;;25.00;99.90;;;;;;5101024;28;20182;-86
2022/05/10 09:27:32;;;;;;;11.10;4.28;;;25.00;99.90;;;;;;5051296;28;20198;-86
2022/05/10 09:29:59;;;;;;;20.40;4.47;;;25.00;99.90;;;;;;5061837;28;20244;-86
2022/05/10 09:35:15;;;;;;;9.82;4.60;;;25.10;99.90;;;;;;5074565;28;20248;-96
2022/05/10 09:37:51;;;;;;;10.18;4.30;;;25.20;99.90;;;;;;5077316;28;20598;-94
2022/05/10 09:40:35;;;;;;;8.98;4.25;;;25.40;99.90;;;;;;5078171;28;20170;-94
2022/05/10 09:43:22;;;;;;;22.83;3.97;;;25.40;99.90;;;;;;5077483;28;20220;-85
2022/05/10 09:46:17;;;;;;;6.75;3.42;;;25.00;99.90;;;;;;5074129;28;20650;-84
2022/05/10 09:48:43;;;;;;;21.77;4.32;;;25.10;99.90;;;;;;5079624;28;20201;-86
2022/05/10 09:51:36;;;;;;;6.20;3.60;;;25.10;99.90;;;;;;5073079;28;20569;-83
2022/05/10 09:54:16;;;;;;;9.32;4.45;;;25.30;99.90;;;;;;5071224;28;20615;-82
2022/05/10 09:56:44;;;;;;;6.70;4.57;;;25.30;99.90;;;;;;5072627;28;20206;-83
2022/05/10 09:59:13;;;;;;;58.42;6.70;;;25.50;99.90;;;;;;5073140;28;20163;-83
2022/05/10 10:01:55;;;;;;;10.73;4.10;;;25.40;99.90;;;;;;5072937;28;20179;-83
2022/05/10 10:04:37;;;;;;;12.73;3.78;;;25.50;99.90;;;;;;5073270;28;20162;-85
2022/05/10 10:07:16;;;;;;;6.78;4.38;;;25.50;99.90;;;;;;5071075;28;20183;-82
2022/05/10 10:09:47;;;;;;;12.95;4.82;;;25.60;99.90;;;;;;5072330;28;20253;-82
2022/05/10 10:12:29;;;;;;;5.95;3.78;;;25.70;99.90;;;;;;5072236;28;20177;-81
2022/05/10 10:14:55;;;;;;;5.05;4.63;;;25.60;99.90;;;;;;5072446;28;20206;-82
2022/05/10 10:17:28;;;;;;;8.75;4.10;;;25.80;99.90;;;;;;5073167;28;20715;-82
2022/05/10 10:20:06;;;;;;;6.13;3.55;;;25.80;99.90;;;;;;5071705;28;20261;-82
2022/05/10 10:22:44;;;;;;;4.15;3.58;;;26.20;99.90;;;;;;5073588;28;20213;-82
2022/05/10 10:25:27;;;;;;;12.95;3.38;;;26.30;99.90;;;;;;5072348;28;20176;-81
2022/05/10 10:28:05;;;;;;;22.48;4.40;;;26.40;99.90;;;;;;5072697;28;20285;-83
2022/05/10 10:31:05;;;;;;;18.77;3.67;;;26.50;99.90;;;;;;5071070;28;20166;-81
2022/05/10 10:33:49;;;;;;;17.80;3.92;;;26.50;99.90;;;;;;5075471;23;20276;-89
2022/05/10 10:36:29;;;;;;;52.38;4.85;;;26.50;99.90;;;;;;5037355;28;20717;-90
2022/05/10 10:39:13;;;;;;;4.30;3.38;;;26.60;99.90;;;;;;5054741;28;20167;-85
2022/05/10 10:41:50;;;;;;;9.73;4.57;;;26.30;99.90;;;;;;5037635;28;20242;-88
2022/05/10 10:44:23;;;;;;;7.68;3.47;;;26.20;99.90;;;;;;5041752;28;20186;-90
2022/05/10 10:47:05;;;;;;;16.85;4.03;;;26.30;99.90;;;;;;5065605;28;20191;-94
2022/05/10 10:49:45;;;;;;;11.10;3.97;;;26.00;99.90;;;;;;5073244;28;20189;-94
2022/05/10 10:52:17;;;;;;;9.68;4.22;;;26.40;99.90;;;;;;5070209;28;20151;-94
2022/05/10 10:54:58;;;;;;;23.85;4.20;;;26.60;99.90;;;;;;5059001;28;20193;-80
2022/05/10 10:58:02;;;;;;;13.43;4.38;;;26.60;99.90;;;;;;5090756;22;20253;-80
2022/05/10 11:00:50;;;;;;;5.55;4.00;;;26.60;99.90;;;;;;5098181;28;20166;-80
2022/05/10 11:04:16;;;;;;;10.30;3.72;;;27.20;99.90;;;;;;5099795;28;20170;-80
2022/05/10 11:06:54;;;;;;;22.35;4.72;;;27.50;99.90;;;;;;5079061;28;20194;-79
2022/05/10 11:09:25;;;;;;;12.82;3.28;;;26.80;99.90;;;;;;5058725;28;20163;-80
2022/05/10 11:12:12;;;;;;;7.68;4.10;;;26.80;99.90;;;;;;5073313;28;20186;-90
2022/05/10 11:14:56;;;;;;;13.05;4.05;;;26.90;99.90;;;;;;5066007;28;20167;-92
2022/05/10 11:17:59;;;;;;;9.63;4.20;;;27.20;99.90;;;;;;5054088;28;20199;-81
2022/05/10 11:21:05;;;;;;;8.88;3.85;;;27.30;99.90;;;;;;5074265;28;20160;-88
2022/05/10 11:24:06;;;;;;;10.05;4.00;;;27.10;99.90;;;;;;5048301;28;20251;-80
2022/05/10 11:26:43;;;;;;;16.85;4.00;;;26.80;99.90;;;;;;5039780;28;20202;-78
2022/05/10 11:29:10;;;;;;;11.55;3.47;;;26.70;99.90;;;;;;5038050;28;20168;-85
2022/05/10 11:32:20;;;;;;;21.73;3.90;;;26.60;99.90;;;;;;5038282;28;20332;-79
2022/05/10 11:35:05;;;;;;;11.88;3.75;;;26.80;99.90;;;;;;5038572;28;20171;-79
2022/05/10 11:37:42;;;;;;;6.85;3.83;;;27.00;99.90;;;;;;5037305;28;20213;-79
2022/05/10 11:40:10;;;;;;;13.15;3.80;;;27.20;99.90;;;;;;5038779;28;20168;-81
2022/05/10 11:43:13;;;;;;;21.58;5.05;;;27.10;99.90;;;;;;5020926;28;20163;-82
2022/05/10 11:46:12;;;;;;;7.13;3.90;;;27.00;99.90;;;;;;5037430;28;20211;-80
2022/05/10 11:49:12;;;;;;;17.40;4.43;;;27.20;99.90;;;;;;5037771;28;20172;-80
2022/05/10 11:51:59;;;;;;;44.17;5.53;;;26.90;99.90;;;;;;5017518;28;20200;-81
2022/05/10 11:54:38;;;;;;;4.13;3.75;;;26.90;99.90;;;;;;5036165;28;20636;-78
2022/05/10 11:57:07;;;;;;;10.00;3.70;;;27.10;99.90;;;;;;5035354;28;20227;-79
2022/05/10 11:59:36;;;;;;;13.30;4.45;;;27.20;99.90;;;;;;5035370;28;20244;-80
2022/05/10 12:02:04;;;;;;;123.65;9.70;;;27.10;99.90;;;;;;5035105;28;20194;-89
2022/05/10 12:04:45;;;;;;;13.20;3.88;;;27.20;99.90;;;;;;5017277;28;20168;-80
2022/05/10 12:07:24;;;;;;;49.13;6.93;;;27.40;99.90;;;;;;5017175;28;20215;-77
2022/05/10 12:09:52;;;;;;;21.77;5.20;;;27.80;99.90;;;;;;5017069;28;20175;-79
2022/05/10 12:12:33;;;;;;;11.00;3.65;;;27.80;99.90;;;;;;5035149;28;20620;-88
2022/05/10 12:21:19;;;;;;;20.83;3.80;;;27.60;99.90;;;;;;5035521;28;20186;-79
2022/05/10 12:21:26;;;;;;;25.65;4.75;;;27.50;99.90;;;;;;5035457;28;20528;-86
2022/05/10 12:24:25;;;;;;;8.18;4.32;;;27.40;99.90;;;;;;5035479;28;20180;-78
2022/05/10 12:27:09;;;;;;;4.55;3.92;;;27.50;99.90;;;;;;5035874;28;20184;-81
2022/05/10 12:29:57;;;;;;;7.70;4.30;;;27.40;99.90;;;;;;5036021;28;20175;-78
2022/05/10 12:32:41;;;;;;;8.73;3.65;;;27.90;99.90;;;;;;5049478;28;20179;-77
2022/05/10 12:35:08;;;;;;;9.00;3.63;;;28.10;99.90;;;;;;5054235;28;20171;-78
2022/05/10 12:37:56;;;;;;;5.10;3.70;;;28.10;99.90;;;;;;5038098;28;20186;-77
2022/05/10 12:40:35;;;;;;;18.55;4.50;;;28.50;99.90;;;;;;5055636;28;20178;-78
2022/05/10 12:43:14;;;;;;;6.20;4.22;;;27.70;99.90;;;;;;5025244;28;20538;-79
2022/05/10 12:46:17;;;;;;;7.43;4.55;;;27.80;99.90;;;;;;5041136;28;20179;-78
2022/05/10 12:49:08;;;;;;;14.35;4.72;;;27.40;99.90;;;;;;5034731;28;20176;-77
2022/05/10 12:52:00;;;;;;;10.88;4.45;;;27.30;99.90;;;;;;5033978;28;20286;-78
2022/05/10 12:54:34;;;;;;;12.38;4.00;;;27.60;99.90;;;;;;5033780;28;20168;-78
2022/05/10 12:57:14;;;;;;;11.80;4.03;;;27.80;99.90;;;;;;5033835;28;20237;-79
2022/05/10 12:59:52;;;;;;;12.57;3.83;;;27.60;99.90;;;;;;5016181;28;20176;-79
2022/05/10 13:02:19;;;;;;;7.15;3.30;;;27.20;99.90;;;;;;5034078;28;20171;-78
2022/05/10 13:04:52;;;;;;;10.05;3.53;;;27.00;99.90;;;;;;5034310;28;20168;-80
2022/05/10 13:07:20;;;;;;;9.93;4.07;;;26.90;99.90;;;;;;5034017;28;20194;-79
2022/05/10 13:09:52;;;;;;;14.88;3.83;;;26.80;99.90;;;;;;5034107;28;20274;-80
2022/05/10 13:12:24;;;;;;;18.63;5.25;;;27.00;99.90;;;;;;5033302;28;20640;-78
2022/05/10 13:14:57;;;;;;;5.28;4.07;;;27.20;99.90;;;;;;5036811;28;20186;-86
2022/05/10 13:17:32;;;;;;;4.32;3.53;;;27.30;99.90;;;;;;5035281;28;20294;-84
2022/05/10 13:19:59;;;;;;;5.13;3.30;;;27.20;99.90;;;;;;5033921;28;20214;-81